»·PEaware :: N554B KSNA-L22

N554B :: KSNA-L22

FLIGHT INFORMATION

Flight Status: Arrived
Operator: Privately registered:
United States
More flights under this callsign
Pilot: Anonymous 37249 (37249)
Aircraft: CESSNA 550 CITATION 2/S2/BRAVO
(C550)
More flights by this aircraft type
Origin: KSNA John Wayne-Orange Co
United States
Destination: L22 Yucca Valley
United States
More flights between these airports :: More routes between these airports
Route: MUSEL8 SLI V64 TRM
File this flight plan on PilotEdge
Remarks:
Altitude:
(Current/Filed)
17,000ft
Speed:
(Current/Filed)
270kts
Departed: 31-Jul-22 04:12 PM
Arrived: 31-Jul-22 04:40 PM
Distance/Time
Traveled:
78nm/0:28
Distance/Time
To Go:
Arrived

Flight Plot

Page will automatically refresh every two minutes.

Flight plan parsing failed; only flown route is shown


Map Options




Map Legend


Flown Route
Filed Route
Departure Airport
Arrival Airport
Navaid (VOR, NDB)
Fix

Horizontal Profiles

Position Reports

Time Latitude Longitude Heading Altitude Ground
Speed
31-Jul-22 15:16 33.674065 -117.872195 298 61ft 0kts
31-Jul-22 15:17 33.674065 -117.872195 298 61ft 0kts
31-Jul-22 15:18 33.674065 -117.872195 298 61ft 0kts
31-Jul-22 15:19 33.674065 -117.872195 298 61ft 0kts
31-Jul-22 15:20 33.674065 -117.872195 298 61ft 0kts
31-Jul-22 15:21 33.674065 -117.872195 298 61ft 0kts
31-Jul-22 15:22 33.674065 -117.872195 298 61ft 0kts
31-Jul-22 15:23 33.674065 -117.872195 298 61ft 0kts
31-Jul-22 15:24 33.674065 -117.872195 298 61ft 0kts
31-Jul-22 15:25 33.674065 -117.872195 298 61ft 0kts
31-Jul-22 15:26 33.674065 -117.872195 298 61ft 0kts
31-Jul-22 15:27 33.674065 -117.872195 298 61ft 0kts
31-Jul-22 15:28 33.674065 -117.872195 298 61ft 0kts
31-Jul-22 15:29 33.674065 -117.872195 298 61ft 0kts
31-Jul-22 15:30 33.674065 -117.872195 298 61ft 0kts
31-Jul-22 15:31 33.674065 -117.872195 298 61ft 0kts
31-Jul-22 15:32 33.674065 -117.872195 298 61ft 0kts
31-Jul-22 15:33 33.674065 -117.872195 298 61ft 0kts
31-Jul-22 15:34 33.674065 -117.872195 298 61ft 0kts
31-Jul-22 15:35 33.674065 -117.872195 298 61ft 0kts
31-Jul-22 15:36 33.674065 -117.872195 298 61ft 0kts
31-Jul-22 15:37 33.674065 -117.872195 298 61ft 0kts
31-Jul-22 15:38 33.674065 -117.872195 298 61ft 0kts
31-Jul-22 15:39 33.674065 -117.872195 298 61ft 0kts
31-Jul-22 15:40 33.674065 -117.872195 298 61ft 0kts
31-Jul-22 15:41 33.674065 -117.872195 298 61ft 0kts
31-Jul-22 15:42 33.674065 -117.872195 298 61ft 0kts
31-Jul-22 15:43 33.674065 -117.872195 298 61ft 0kts
31-Jul-22 15:44 33.674065 -117.872195 298 61ft 0kts
31-Jul-22 15:45 33.674065 -117.872195 298 61ft 0kts
31-Jul-22 15:46 33.674065 -117.872195 298 61ft 0kts
31-Jul-22 15:47 33.674065 -117.872195 298 61ft 0kts
31-Jul-22 15:48 33.674065 -117.872195 298 61ft 0kts
31-Jul-22 15:49 33.674065 -117.872195 298 61ft 0kts
31-Jul-22 15:50 33.674065 -117.872195 298 61ft 0kts
31-Jul-22 15:51 33.674065 -117.872195 298 61ft 0kts
31-Jul-22 15:52 33.674065 -117.872195 298 61ft 0kts
31-Jul-22 15:53 33.674065 -117.872195 298 61ft 0kts
31-Jul-22 15:54 33.674065 -117.872195 298 61ft 0kts
31-Jul-22 15:55 33.674065 -117.872195 298 61ft 0kts
31-Jul-22 15:56 33.674065 -117.872195 298 61ft 0kts
31-Jul-22 15:57 33.674065 -117.872195 298 61ft 0kts
31-Jul-22 15:58 33.674065 -117.872195 298 61ft 0kts
31-Jul-22 15:59 33.674065 -117.872195 298 61ft 0kts
31-Jul-22 16:00 33.674065 -117.872195 298 61ft 0kts
31-Jul-22 16:01 33.674065 -117.872195 298 61ft 0kts
31-Jul-22 16:02 33.674065 -117.872195 298 61ft 0kts
31-Jul-22 16:03 33.674065 -117.872195 298 61ft 0kts
31-Jul-22 16:04 33.674065 -117.872195 298 61ft 0kts
31-Jul-22 16:05 33.674067 -117.872199 298 61ft 0kts
31-Jul-22 16:06 33.674837 -117.870860 27 61ft 8kts
31-Jul-22 16:07 33.677648 -117.869083 28 61ft 11kts
31-Jul-22 16:08 33.680221 -117.867640 26 61ft 7kts
31-Jul-22 16:09 33.681735 -117.866674 33 61ft 5kts
31-Jul-22 16:10 33.681932 -117.866039 99 61ft 3kts
31-Jul-22 16:11 33.673638 -117.870121 207 87ft 110kts
31-Jul-22 16:12 33.641976 -117.886270 187 1902ft 142kts
31-Jul-22 16:13 33.596621 -117.888722 150 3938ft 196kts
31-Jul-22 16:14 33.592372 -117.818576 82 6100ft 250kts
31-Jul-22 16:15 33.596750 -117.728695 88 8151ft 289kts
31-Jul-22 16:16 33.599181 -117.628691 88 9959ft 306kts
31-Jul-22 16:17 33.601758 -117.526219 88 11758ft 309kts
31-Jul-22 16:18 33.604289 -117.422173 89 13004ft 322kts
31-Jul-22 16:19 33.606876 -117.312340 89 13009ft 328kts
31-Jul-22 16:20 33.609320 -117.204854 89 13009ft 320kts
31-Jul-22 16:21 33.611647 -117.098079 89 13007ft 322kts
31-Jul-22 16:22 33.613880 -116.990446 89 12987ft 324kts
31-Jul-22 16:23 33.616047 -116.882460 89 12966ft 324kts
31-Jul-22 16:24 33.618133 -116.773404 89 12963ft 330kts
31-Jul-22 16:25 33.620160 -116.662554 89 12963ft 333kts
31-Jul-22 16:26 33.622046 -116.555199 89 12961ft 306kts
31-Jul-22 16:27 33.623679 -116.455729 89 12963ft 300kts
31-Jul-22 16:28 33.625252 -116.355155 89 12963ft 302kts
31-Jul-22 16:29 33.637468 -116.256263 61 12963ft 307kts
31-Jul-22 16:30 33.707266 -116.207325 1 11869ft 299kts
31-Jul-22 16:31 33.782361 -116.245183 327 10474ft 298kts
31-Jul-22 16:32 33.849284 -116.302980 323 9073ft 294kts
31-Jul-22 16:33 33.912956 -116.359829 323 7655ft 275kts
31-Jul-22 16:34 33.973270 -116.413026 323 6071ft 265kts
31-Jul-22 16:35 34.027487 -116.460396 323 5960ft 219kts
31-Jul-22 16:36 34.075720 -116.503092 340 5176ft 199kts
31-Jul-22 16:37 34.111150 -116.467411 68 4396ft 182kts
31-Jul-22 16:38 34.126010 -116.419134 64 3385ft 110kts
31-Jul-22 16:39 34.131566 -116.401230 78 3207ft 12kts
31-Jul-22 16:40 34.131019 -116.403125 248 3210ft 15kts
31-Jul-22 16:41 34.129101 -116.409233 229 3222ft 8kts
31-Jul-22 16:42 34.128811 -116.408765 181 3222ft 0kts
31-Jul-22 16:43 34.128811 -116.408765 181 3222ft 0kts
31-Jul-22 16:44 34.128811 -116.408765 181 3222ft 0kts
31-Jul-22 16:45 34.128811 -116.408765 181 3222ft 0kts
31-Jul-22 16:46 34.128811 -116.408765 181 3222ft 0kts
31-Jul-22 16:47 34.128811 -116.408765 181 3222ft 0kts
31-Jul-22 16:48 34.128811 -116.408765 181 3222ft 0kts
31-Jul-22 16:49 34.128811 -116.408765 181 3222ft 0kts
31-Jul-22 16:50 34.128811 -116.408765 181 3222ft 0kts
31-Jul-22 16:51 34.128811 -116.408765 181 3222ft 0kts

Navigation Log

Ident Type
Flight plan parsing failed, navigation log unavailable